createdAt,value
2022-08-02T00:09:17.672Z,19.98
2022-08-02T00:19:27.703Z,20.00
2022-08-02T00:29:34.235Z,19.91
2022-08-02T00:39:48.694Z,20.28
2022-08-02T00:49:55.014Z,20.41
2022-08-02T01:00:01.323Z,20.54
2022-08-02T01:10:08.696Z,20.41
2022-08-02T01:20:21.081Z,20.74
2022-08-02T01:30:28.485Z,20.84
2022-08-02T01:40:37.555Z,20.82
2022-08-02T01:50:44.177Z,20.96
2022-08-02T02:00:51.018Z,21.13
2022-08-02T02:12:08.677Z,21.19
2022-08-02T02:21:27.046Z,21.36
2022-08-02T02:31:40.610Z,21.45
2022-08-02T02:41:47.536Z,21.33
2022-08-02T02:51:54.527Z,21.39
2022-08-02T03:02:01.387Z,21.40
2022-08-02T03:12:08.186Z,21.49
2022-08-02T03:22:14.678Z,21.41
2022-08-02T03:32:21.147Z,21.42
2022-08-02T03:42:28.468Z,21.44
2022-08-02T03:52:35.064Z,21.50
2022-08-02T04:02:41.354Z,21.31
2022-08-02T04:12:47.666Z,21.32
2022-08-02T04:23:02.273Z,21.21
2022-08-02T04:33:08.885Z,21.39
2022-08-02T04:43:15.240Z,21.52
2022-08-02T04:53:21.749Z,21.44
2022-08-02T05:03:28.069Z,21.20
2022-08-02T05:13:34.384Z,21.05
2022-08-02T05:24:00.693Z,21.10
2022-08-02T05:34:11.460Z,20.70
2022-08-02T05:44:18.489Z,19.51
2022-08-02T05:54:33.356Z,20.24
2022-08-02T06:04:54.230Z,20.24
2022-08-02T06:15:01.155Z,20.54
2022-08-02T06:25:48.017Z,20.70
2022-08-02T06:35:46.602Z,20.87
2022-08-02T06:45:52.998Z,21.06
2022-08-02T06:55:59.689Z,21.25
2022-08-02T07:06:07.098Z,21.37
2022-08-02T07:16:13.478Z,21.71
2022-08-02T07:26:19.837Z,22.08
2022-08-02T07:36:26.853Z,21.92
2022-08-02T07:46:34.518Z,22.36
2022-08-02T07:56:40.954Z,22.89
2022-08-02T08:06:50.844Z,22.66
2022-08-02T08:16:57.157Z,22.71
2022-08-02T08:27:03.477Z,23.28
2022-08-02T08:37:16.714Z,24.36
2022-08-02T08:47:25.696Z,24.59
2022-08-02T08:57:32.687Z,24.51
2022-08-02T09:07:39.226Z,25.72
2022-08-02T09:17:52.423Z,26.59
2022-08-02T09:28:00.361Z,25.68
2022-08-02T09:38:14.357Z,26.51
2022-08-02T09:48:21.135Z,26.02
2022-08-02T09:58:27.490Z,26.54
2022-08-02T10:08:34.579Z,28.87
2022-08-02T10:18:41.580Z,28.54
2022-08-02T10:28:50.620Z,28.58
2022-08-02T10:38:59.799Z,29.69
2022-08-02T10:49:37.404Z,28.96
2022-08-02T10:59:37.685Z,28.80
2022-08-02T11:09:47.177Z,29.04
2022-08-02T11:20:12.079Z,30.26
2022-08-02T11:30:18.574Z,30.41
2022-08-02T11:40:24.907Z,31.09
2022-08-02T11:50:38.813Z,30.86
2022-08-02T12:00:48.219Z,31.21
2022-08-02T12:10:54.774Z,31.25
2022-08-02T12:21:01.213Z,31.89
2022-08-02T12:31:11.684Z,31.47
2022-08-02T12:41:30.292Z,30.83
2022-08-02T12:51:56.312Z,30.85
2022-08-02T13:02:07.348Z,28.95
2022-08-02T13:12:14.247Z,28.82
2022-08-02T13:22:20.878Z,28.05
2022-08-02T13:32:30.088Z,27.52
2022-08-02T13:42:36.526Z,27.31
2022-08-02T13:52:42.985Z,27.19
2022-08-02T14:02:49.832Z,27.46
2022-08-02T14:12:56.529Z,28.27
2022-08-02T14:23:03.145Z,28.33
2022-08-02T14:33:10.070Z,28.65
2022-08-02T14:43:36.328Z,28.75
2022-08-02T14:53:49.193Z,28.59
2022-08-02T15:03:56.101Z,28.41
2022-08-02T15:14:02.402Z,28.12
2022-08-02T15:24:08.770Z,28.03
2022-08-02T15:34:15.187Z,28.07
2022-08-02T15:44:26.190Z,27.48
2022-08-02T15:54:32.682Z,27.41
2022-08-02T16:04:39.033Z,26.73
2022-08-02T16:14:45.350Z,26.61
2022-08-02T16:24:51.934Z,26.34
2022-08-02T16:35:08.217Z,26.18
2022-08-02T16:45:15.630Z,26.24
2022-08-02T16:55:29.120Z,25.98
2022-08-02T17:05:56.721Z,25.85
2022-08-02T17:16:20.746Z,25.77
2022-08-02T17:26:30.093Z,25.75
2022-08-02T17:36:36.594Z,25.58
2022-08-02T17:46:43.114Z,25.41
2022-08-02T17:56:51.489Z,25.22
2022-08-02T18:07:00.625Z,25.01
2022-08-02T18:17:10.655Z,24.81
2022-08-02T18:27:18.658Z,24.59
2022-08-02T18:37:27.067Z,24.41
2022-08-02T18:47:51.111Z,24.17
2022-08-02T18:58:18.331Z,23.95
2022-08-02T19:08:26.123Z,23.71
2022-08-02T19:18:32.727Z,23.57
2022-08-02T19:28:42.451Z,23.40
2022-08-02T19:38:50.140Z,23.29
2022-08-02T19:48:57.226Z,23.18
2022-08-02T20:09:33.159Z,22.83
2022-08-02T20:19:40.559Z,22.77
2022-08-02T20:29:49.855Z,22.68
2022-08-02T20:39:56.378Z,22.58
2022-08-02T20:50:21.358Z,22.38
2022-08-02T21:00:37.517Z,22.29
2022-08-02T21:10:50.839Z,22.24
2022-08-02T21:20:59.147Z,22.13
2022-08-02T21:31:07.000Z,22.00
2022-08-02T21:41:13.334Z,21.99
2022-08-02T21:51:19.642Z,21.91
2022-08-02T22:01:26.026Z,21.78
2022-08-02T22:11:36.348Z,21.73
2022-08-02T22:21:54.601Z,21.69
2022-08-02T22:32:01.958Z,21.59
2022-08-02T22:42:08.334Z,21.24
2022-08-02T22:52:15.805Z,21.37
2022-08-02T22:59:10.285Z,23.02
2022-08-02T23:02:26.435Z,21.39
2022-08-02T23:12:33.398Z,21.39
2022-08-02T23:22:40.134Z,21.38
2022-08-02T23:32:46.879Z,21.35
2022-08-02T23:42:53.454Z,21.29
2022-08-02T23:52:59.937Z,21.20
